sensor_id;sensor_type;location;lat;lon;timestamp;P1;durP1;ratioP1;P2;durP2;ratioP2
17441;SDS011;8838;50.144;8.176;2024-01-07T00:01:04;19.50;;;11.73;;
17441;SDS011;8838;50.144;8.176;2024-01-07T00:03:34;20.00;;;11.40;;
17441;SDS011;8838;50.144;8.176;2024-01-07T00:06:01;18.87;;;11.60;;
17441;SDS011;8838;50.144;8.176;2024-01-07T00:08:28;17.57;;;10.53;;
17441;SDS011;8838;50.144;8.176;2024-01-07T00:10:55;17.40;;;11.17;;
17441;SDS011;8838;50.144;8.176;2024-01-07T00:13:22;18.23;;;11.00;;
17441;SDS011;8838;50.144;8.176;2024-01-07T00:15:49;18.87;;;11.30;;
17441;SDS011;8838;50.144;8.176;2024-01-07T00:18:18;19.47;;;11.50;;
17441;SDS011;8838;50.144;8.176;2024-01-07T00:20:45;19.80;;;12.33;;
17441;SDS011;8838;50.144;8.176;2024-01-07T00:23:12;20.30;;;11.73;;
17441;SDS011;8838;50.144;8.176;2024-01-07T00:25:39;17.67;;;10.40;;
17441;SDS011;8838;50.144;8.176;2024-01-07T00:28:07;17.57;;;11.20;;
17441;SDS011;8838;50.144;8.176;2024-01-07T00:30:33;19.37;;;12.20;;
17441;SDS011;8838;50.144;8.176;2024-01-07T00:33:01;18.27;;;11.77;;
17441;SDS011;8838;50.144;8.176;2024-01-07T00:35:29;18.30;;;12.13;;
17441;SDS011;8838;50.144;8.176;2024-01-07T00:37:56;18.20;;;11.60;;
17441;SDS011;8838;50.144;8.176;2024-01-07T00:40:23;17.90;;;11.47;;
17441;SDS011;8838;50.144;8.176;2024-01-07T00:42:51;16.90;;;11.10;;
17441;SDS011;8838;50.144;8.176;2024-01-07T00:45:18;16.97;;;11.00;;
17441;SDS011;8838;50.144;8.176;2024-01-07T00:47:46;17.90;;;11.67;;
17441;SDS011;8838;50.144;8.176;2024-01-07T00:50:13;19.80;;;12.00;;
17441;SDS011;8838;50.144;8.176;2024-01-07T00:52:41;21.00;;;12.53;;
17441;SDS011;8838;50.144;8.176;2024-01-07T00:55:09;17.90;;;12.47;;
17441;SDS011;8838;50.144;8.176;2024-01-07T00:57:36;20.33;;;12.20;;
17441;SDS011;8838;50.144;8.176;2024-01-07T01:00:04;19.07;;;13.03;;
17441;SDS011;8838;50.144;8.176;2024-01-07T01:02:32;18.70;;;12.13;;
17441;SDS011;8838;50.144;8.176;2024-01-07T01:05:01;18.57;;;12.87;;
17441;SDS011;8838;50.144;8.176;2024-01-07T01:07:28;20.47;;;12.97;;
17441;SDS011;8838;50.144;8.176;2024-01-07T01:09:57;16.63;;;11.97;;
17441;SDS011;8838;50.144;8.176;2024-01-07T01:12:24;18.90;;;11.57;;
17441;SDS011;8838;50.144;8.176;2024-01-07T01:14:51;19.27;;;12.67;;
17441;SDS011;8838;50.144;8.176;2024-01-07T01:17:18;18.30;;;12.07;;
17441;SDS011;8838;50.144;8.176;2024-01-07T01:19:45;19.17;;;12.70;;
17441;SDS011;8838;50.144;8.176;2024-01-07T01:22:12;17.43;;;11.87;;
17441;SDS011;8838;50.144;8.176;2024-01-07T01:24:39;18.77;;;12.10;;
17441;SDS011;8838;50.144;8.176;2024-01-07T01:27:07;18.10;;;12.33;;
17441;SDS011;8838;50.144;8.176;2024-01-07T01:29:35;18.00;;;12.23;;
17441;SDS011;8838;50.144;8.176;2024-01-07T01:32:02;19.73;;;12.57;;
17441;SDS011;8838;50.144;8.176;2024-01-07T01:34:31;16.40;;;11.57;;
17441;SDS011;8838;50.144;8.176;2024-01-07T01:36:58;20.83;;;13.47;;
17441;SDS011;8838;50.144;8.176;2024-01-07T01:39:25;19.57;;;13.40;;
17441;SDS011;8838;50.144;8.176;2024-01-07T01:41:52;18.43;;;12.73;;
17441;SDS011;8838;50.144;8.176;2024-01-07T01:44:20;19.50;;;12.93;;
17441;SDS011;8838;50.144;8.176;2024-01-07T01:46:47;20.30;;;13.13;;
17441;SDS011;8838;50.144;8.176;2024-01-07T01:49:14;19.20;;;12.63;;
17441;SDS011;8838;50.144;8.176;2024-01-07T01:51:42;19.10;;;12.93;;
17441;SDS011;8838;50.144;8.176;2024-01-07T01:54:09;20.10;;;13.13;;
17441;SDS011;8838;50.144;8.176;2024-01-07T01:56:36;18.93;;;12.60;;
17441;SDS011;8838;50.144;8.176;2024-01-07T01:59:03;16.67;;;11.50;;
17441;SDS011;8838;50.144;8.176;2024-01-07T02:01:31;19.43;;;12.80;;
17441;SDS011;8838;50.144;8.176;2024-01-07T02:03:58;17.23;;;12.03;;
17441;SDS011;8838;50.144;8.176;2024-01-07T02:06:25;19.90;;;12.83;;
17441;SDS011;8838;50.144;8.176;2024-01-07T02:08:52;17.70;;;12.77;;
17441;SDS011;8838;50.144;8.176;2024-01-07T02:11:18;21.00;;;14.13;;
17441;SDS011;8838;50.144;8.176;2024-01-07T02:13:46;16.67;;;11.80;;
17441;SDS011;8838;50.144;8.176;2024-01-07T02:16:14;17.20;;;11.43;;
17441;SDS011;8838;50.144;8.176;2024-01-07T02:18:43;17.73;;;12.17;;
17441;SDS011;8838;50.144;8.176;2024-01-07T02:21:12;16.23;;;11.87;;
17441;SDS011;8838;50.144;8.176;2024-01-07T02:23:39;17.13;;;11.37;;
17441;SDS011;8838;50.144;8.176;2024-01-07T02:26:08;15.53;;;10.90;;
17441;SDS011;8838;50.144;8.176;2024-01-07T02:28:35;14.37;;;10.50;;
17441;SDS011;8838;50.144;8.176;2024-01-07T02:31:01;15.57;;;11.33;;
17441;SDS011;8838;50.144;8.176;2024-01-07T02:33:29;17.47;;;11.43;;
17441;SDS011;8838;50.144;8.176;2024-01-07T02:35:56;16.17;;;10.53;;
17441;SDS011;8838;50.144;8.176;2024-01-07T02:38:23;16.67;;;11.60;;
17441;SDS011;8838;50.144;8.176;2024-01-07T02:40:49;15.90;;;10.90;;
17441;SDS011;8838;50.144;8.176;2024-01-07T02:43:18;15.00;;;10.10;;
17441;SDS011;8838;50.144;8.176;2024-01-07T02:45:45;17.03;;;10.87;;
17441;SDS011;8838;50.144;8.176;2024-01-07T02:48:11;16.23;;;11.20;;
17441;SDS011;8838;50.144;8.176;2024-01-07T02:50:38;15.30;;;10.43;;
17441;SDS011;8838;50.144;8.176;2024-01-07T02:53:06;13.93;;;9.80;;
17441;SDS011;8838;50.144;8.176;2024-01-07T02:55:35;14.97;;;10.00;;
17441;SDS011;8838;50.144;8.176;2024-01-07T02:58:03;13.70;;;9.50;;
17441;SDS011;8838;50.144;8.176;2024-01-07T03:00:31;15.03;;;10.07;;
17441;SDS011;8838;50.144;8.176;2024-01-07T03:02:58;15.60;;;10.83;;
17441;SDS011;8838;50.144;8.176;2024-01-07T03:05:25;14.13;;;9.80;;
17441;SDS011;8838;50.144;8.176;2024-01-07T03:07:54;14.63;;;9.30;;
17441;SDS011;8838;50.144;8.176;2024-01-07T03:10:21;12.50;;;9.13;;
17441;SDS011;8838;50.144;8.176;2024-01-07T03:12:48;14.80;;;9.60;;
17441;SDS011;8838;50.144;8.176;2024-01-07T03:15:14;14.60;;;10.07;;
17441;SDS011;8838;50.144;8.176;2024-01-07T03:17:42;13.73;;;9.40;;
17441;SDS011;8838;50.144;8.176;2024-01-07T03:20:10;13.13;;;9.10;;
17441;SDS011;8838;50.144;8.176;2024-01-07T03:22:37;14.47;;;9.77;;
17441;SDS011;8838;50.144;8.176;2024-01-07T03:25:05;16.33;;;10.40;;
17441;SDS011;8838;50.144;8.176;2024-01-07T03:27:33;14.03;;;9.43;;
17441;SDS011;8838;50.144;8.176;2024-01-07T03:30:00;14.27;;;9.77;;
17441;SDS011;8838;50.144;8.176;2024-01-07T03:32:28;14.20;;;10.17;;
17441;SDS011;8838;50.144;8.176;2024-01-07T03:34:56;13.67;;;9.60;;
17441;SDS011;8838;50.144;8.176;2024-01-07T03:37:23;12.17;;;8.73;;
17441;SDS011;8838;50.144;8.176;2024-01-07T03:39:50;14.40;;;9.50;;
17441;SDS011;8838;50.144;8.176;2024-01-07T03:42:17;13.80;;;9.53;;
17441;SDS011;8838;50.144;8.176;2024-01-07T03:44:44;16.07;;;9.93;;
17441;SDS011;8838;50.144;8.176;2024-01-07T03:47:11;14.40;;;8.73;;
17441;SDS011;8838;50.144;8.176;2024-01-07T03:49:38;12.20;;;8.87;;
17441;SDS011;8838;50.144;8.176;2024-01-07T03:52:07;14.37;;;9.17;;
17441;SDS011;8838;50.144;8.176;2024-01-07T03:54:34;12.60;;;8.10;;
17441;SDS011;8838;50.144;8.176;2024-01-07T03:57:01;12.30;;;8.33;;
17441;SDS011;8838;50.144;8.176;2024-01-07T03:59:28;12.67;;;8.17;;
17441;SDS011;8838;50.144;8.176;2024-01-07T04:01:55;12.50;;;8.10;;
17441;SDS011;8838;50.144;8.176;2024-01-07T04:04:22;11.20;;;7.57;;
17441;SDS011;8838;50.144;8.176;2024-01-07T04:06:49;10.33;;;7.43;;
17441;SDS011;8838;50.144;8.176;2024-01-07T04:09:18;11.13;;;7.33;;
17441;SDS011;8838;50.144;8.176;2024-01-07T04:11:45;11.73;;;7.40;;
17441;SDS011;8838;50.144;8.176;2024-01-07T04:14:13;10.00;;;7.63;;
17441;SDS011;8838;50.144;8.176;2024-01-07T04:16:41;10.67;;;7.50;;
17441;SDS011;8838;50.144;8.176;2024-01-07T04:19:07;9.50;;;7.10;;
17441;SDS011;8838;50.144;8.176;2024-01-07T04:21:34;11.87;;;7.53;;
17441;SDS011;8838;50.144;8.176;2024-01-07T04:24:01;11.03;;;7.93;;
17441;SDS011;8838;50.144;8.176;2024-01-07T04:26:30;12.80;;;7.43;;
17441;SDS011;8838;50.144;8.176;2024-01-07T04:28:57;13.30;;;7.73;;
17441;SDS011;8838;50.144;8.176;2024-01-07T04:31:23;11.63;;;7.20;;
17441;SDS011;8838;50.144;8.176;2024-01-07T04:33:50;10.43;;;7.53;;
17441;SDS011;8838;50.144;8.176;2024-01-07T04:36:17;9.73;;;7.30;;
17441;SDS011;8838;50.144;8.176;2024-01-07T04:38:44;11.70;;;7.13;;
17441;SDS011;8838;50.144;8.176;2024-01-07T04:41:11;11.63;;;7.70;;
17441;SDS011;8838;50.144;8.176;2024-01-07T04:43:40;10.77;;;7.13;;
17441;SDS011;8838;50.144;8.176;2024-01-07T04:46:08;11.40;;;6.93;;
17441;SDS011;8838;50.144;8.176;2024-01-07T04:48:37;13.20;;;8.47;;
17441;SDS011;8838;50.144;8.176;2024-01-07T04:51:04;12.37;;;7.60;;
17441;SDS011;8838;50.144;8.176;2024-01-07T04:53:31;13.43;;;8.63;;
17441;SDS011;8838;50.144;8.176;2024-01-07T04:55:58;13.50;;;7.43;;
17441;SDS011;8838;50.144;8.176;2024-01-07T04:58:24;11.53;;;7.83;;
17441;SDS011;8838;50.144;8.176;2024-01-07T05:00:53;12.47;;;7.70;;
17441;SDS011;8838;50.144;8.176;2024-01-07T05:03:20;12.97;;;7.77;;
17441;SDS011;8838;50.144;8.176;2024-01-07T05:05:47;11.83;;;7.60;;
17441;SDS011;8838;50.144;8.176;2024-01-07T05:08:14;15.63;;;8.00;;
17441;SDS011;8838;50.144;8.176;2024-01-07T05:10:40;13.53;;;7.77;;
17441;SDS011;8838;50.144;8.176;2024-01-07T05:13:07;12.13;;;7.30;;
17441;SDS011;8838;50.144;8.176;2024-01-07T05:15:35;12.53;;;7.50;;
17441;SDS011;8838;50.144;8.176;2024-01-07T05:18:04;14.27;;;7.70;;
17441;SDS011;8838;50.144;8.176;2024-01-07T05:20:33;11.37;;;7.00;;
17441;SDS011;8838;50.144;8.176;2024-01-07T05:23:00;9.70;;;6.50;;
17441;SDS011;8838;50.144;8.176;2024-01-07T05:25:27;12.47;;;6.53;;
17441;SDS011;8838;50.144;8.176;2024-01-07T05:27:54;10.07;;;6.07;;
17441;SDS011;8838;50.144;8.176;2024-01-07T05:30:21;10.10;;;6.27;;
17441;SDS011;8838;50.144;8.176;2024-01-07T05:32:48;9.17;;;5.93;;
17441;SDS011;8838;50.144;8.176;2024-01-07T05:35:16;11.07;;;6.87;;
17441;SDS011;8838;50.144;8.176;2024-01-07T05:37:43;10.57;;;6.57;;
17441;SDS011;8838;50.144;8.176;2024-01-07T05:40:10;11.57;;;6.77;;
17441;SDS011;8838;50.144;8.176;2024-01-07T05:42:37;13.50;;;7.53;;
17441;SDS011;8838;50.144;8.176;2024-01-07T05:45:05;11.97;;;7.40;;
17441;SDS011;8838;50.144;8.176;2024-01-07T05:47:32;13.20;;;7.77;;
17441;SDS011;8838;50.144;8.176;2024-01-07T05:49:59;15.73;;;8.70;;
17441;SDS011;8838;50.144;8.176;2024-01-07T05:52:26;15.23;;;8.53;;
17441;SDS011;8838;50.144;8.176;2024-01-07T05:54:53;15.50;;;8.47;;
17441;SDS011;8838;50.144;8.176;2024-01-07T05:57:20;13.63;;;8.13;;
17441;SDS011;8838;50.144;8.176;2024-01-07T05:59:47;20.53;;;9.67;;
17441;SDS011;8838;50.144;8.176;2024-01-07T06:02:15;19.10;;;9.93;;
17441;SDS011;8838;50.144;8.176;2024-01-07T06:04:42;18.70;;;10.83;;
17441;SDS011;8838;50.144;8.176;2024-01-07T06:07:09;24.73;;;10.53;;
17441;SDS011;8838;50.144;8.176;2024-01-07T06:09:37;21.73;;;10.77;;
17441;SDS011;8838;50.144;8.176;2024-01-07T06:12:05;22.23;;;11.07;;
17441;SDS011;8838;50.144;8.176;2024-01-07T06:14:32;25.63;;;11.33;;
17441;SDS011;8838;50.144;8.176;2024-01-07T06:16:58;33.33;;;12.20;;
17441;SDS011;8838;50.144;8.176;2024-01-07T06:19:26;29.03;;;12.33;;
17441;SDS011;8838;50.144;8.176;2024-01-07T06:21:52;26.10;;;12.23;;
17441;SDS011;8838;50.144;8.176;2024-01-07T06:24:19;26.30;;;13.03;;
17441;SDS011;8838;50.144;8.176;2024-01-07T06:26:47;25.03;;;12.77;;
17441;SDS011;8838;50.144;8.176;2024-01-07T06:29:14;32.17;;;15.17;;
17441;SDS011;8838;50.144;8.176;2024-01-07T06:31:44;29.43;;;13.90;;
17441;SDS011;8838;50.144;8.176;2024-01-07T06:34:11;27.43;;;14.37;;
17441;SDS011;8838;50.144;8.176;2024-01-07T06:36:39;28.17;;;14.40;;
17441;SDS011;8838;50.144;8.176;2024-01-07T06:39:06;27.83;;;14.10;;
17441;SDS011;8838;50.144;8.176;2024-01-07T06:41:34;26.67;;;14.53;;
17441;SDS011;8838;50.144;8.176;2024-01-07T06:44:02;31.90;;;15.13;;
17441;SDS011;8838;50.144;8.176;2024-01-07T06:46:29;28.67;;;14.00;;
17441;SDS011;8838;50.144;8.176;2024-01-07T06:48:59;26.50;;;14.97;;
17441;SDS011;8838;50.144;8.176;2024-01-07T06:51:26;28.67;;;15.33;;
17441;SDS011;8838;50.144;8.176;2024-01-07T06:53:53;28.33;;;14.10;;
17441;SDS011;8838;50.144;8.176;2024-01-07T06:56:19;28.47;;;14.87;;
17441;SDS011;8838;50.144;8.176;2024-01-07T06:58:47;28.90;;;14.90;;
17441;SDS011;8838;50.144;8.176;2024-01-07T07:01:18;28.33;;;14.83;;
17441;SDS011;8838;50.144;8.176;2024-01-07T07:03:46;27.50;;;14.53;;
17441;SDS011;8838;50.144;8.176;2024-01-07T07:06:13;29.43;;;14.83;;
17441;SDS011;8838;50.144;8.176;2024-01-07T07:08:40;29.13;;;15.33;;
17441;SDS011;8838;50.144;8.176;2024-01-07T07:11:07;30.97;;;16.87;;
17441;SDS011;8838;50.144;8.176;2024-01-07T07:13:34;25.10;;;14.60;;
17441;SDS011;8838;50.144;8.176;2024-01-07T07:16:00;25.23;;;15.00;;
17441;SDS011;8838;50.144;8.176;2024-01-07T07:18:29;25.67;;;14.70;;
17441;SDS011;8838;50.144;8.176;2024-01-07T07:20:56;25.40;;;14.60;;
17441;SDS011;8838;50.144;8.176;2024-01-07T07:23:23;20.97;;;13.70;;
17441;SDS011;8838;50.144;8.176;2024-01-07T07:25:50;19.67;;;12.67;;
17441;SDS011;8838;50.144;8.176;2024-01-07T07:28:17;19.43;;;13.23;;
17441;SDS011;8838;50.144;8.176;2024-01-07T07:30:44;16.10;;;10.50;;
17441;SDS011;8838;50.144;8.176;2024-01-07T07:33:11;16.60;;;10.83;;
17441;SDS011;8838;50.144;8.176;2024-01-07T07:35:40;14.23;;;10.13;;
17441;SDS011;8838;50.144;8.176;2024-01-07T07:38:07;14.93;;;10.33;;
17441;SDS011;8838;50.144;8.176;2024-01-07T07:40:34;15.10;;;11.37;;
17441;SDS011;8838;50.144;8.176;2024-01-07T07:43:00;15.20;;;10.80;;
17441;SDS011;8838;50.144;8.176;2024-01-07T07:45:27;15.63;;;11.17;;
17441;SDS011;8838;50.144;8.176;2024-01-07T07:47:54;19.30;;;13.87;;
17441;SDS011;8838;50.144;8.176;2024-01-07T07:50:21;16.33;;;12.40;;
17441;SDS011;8838;50.144;8.176;2024-01-07T07:52:49;14.83;;;11.20;;
17441;SDS011;8838;50.144;8.176;2024-01-07T07:55:16;15.53;;;11.10;;
17441;SDS011;8838;50.144;8.176;2024-01-07T07:57:43;16.80;;;12.30;;
17441;SDS011;8838;50.144;8.176;2024-01-07T08:00:11;13.27;;;9.47;;
17441;SDS011;8838;50.144;8.176;2024-01-07T08:02:38;14.77;;;11.23;;
17441;SDS011;8838;50.144;8.176;2024-01-07T08:05:06;14.83;;;10.60;;
17441;SDS011;8838;50.144;8.176;2024-01-07T08:07:33;16.37;;;11.70;;
17441;SDS011;8838;50.144;8.176;2024-01-07T08:10:01;15.60;;;11.50;;
17441;SDS011;8838;50.144;8.176;2024-01-07T08:12:28;15.27;;;11.00;;
17441;SDS011;8838;50.144;8.176;2024-01-07T08:14:54;13.23;;;9.53;;
17441;SDS011;8838;50.144;8.176;2024-01-07T08:17:21;11.80;;;8.67;;
17441;SDS011;8838;50.144;8.176;2024-01-07T08:19:49;14.07;;;9.63;;
17441;SDS011;8838;50.144;8.176;2024-01-07T08:22:16;12.27;;;8.67;;
17441;SDS011;8838;50.144;8.176;2024-01-07T08:24:43;14.03;;;10.10;;
17441;SDS011;8838;50.144;8.176;2024-01-07T08:27:12;13.37;;;9.77;;
17441;SDS011;8838;50.144;8.176;2024-01-07T08:29:39;13.87;;;10.20;;
17441;SDS011;8838;50.144;8.176;2024-01-07T08:32:09;14.43;;;10.07;;
17441;SDS011;8838;50.144;8.176;2024-01-07T08:34:37;18.23;;;11.27;;
17441;SDS011;8838;50.144;8.176;2024-01-07T08:37:06;17.90;;;11.93;;
17441;SDS011;8838;50.144;8.176;2024-01-07T08:39:33;17.63;;;11.90;;
17441;SDS011;8838;50.144;8.176;2024-01-07T08:42:01;18.43;;;12.83;;
17441;SDS011;8838;50.144;8.176;2024-01-07T08:44:30;19.70;;;13.47;;
17441;SDS011;8838;50.144;8.176;2024-01-07T08:46:57;21.77;;;14.20;;
17441;SDS011;8838;50.144;8.176;2024-01-07T08:49:26;22.20;;;15.07;;
17441;SDS011;8838;50.144;8.176;2024-01-07T08:51:54;23.10;;;13.97;;
17441;SDS011;8838;50.144;8.176;2024-01-07T08:54:22;20.67;;;14.00;;
17441;SDS011;8838;50.144;8.176;2024-01-07T08:56:50;23.93;;;14.67;;
17441;SDS011;8838;50.144;8.176;2024-01-07T08:59:17;22.93;;;15.50;;
17441;SDS011;8838;50.144;8.176;2024-01-07T09:01:46;22.20;;;13.60;;
17441;SDS011;8838;50.144;8.176;2024-01-07T09:04:13;23.23;;;14.57;;
17441;SDS011;8838;50.144;8.176;2024-01-07T09:06:41;23.83;;;15.07;;
17441;SDS011;8838;50.144;8.176;2024-01-07T09:09:09;25.83;;;15.10;;
17441;SDS011;8838;50.144;8.176;2024-01-07T09:11:36;23.40;;;15.07;;
17441;SDS011;8838;50.144;8.176;2024-01-07T09:14:03;24.57;;;15.00;;
17441;SDS011;8838;50.144;8.176;2024-01-07T09:16:30;23.47;;;14.33;;
17441;SDS011;8838;50.144;8.176;2024-01-07T09:18:59;26.97;;;15.10;;
17441;SDS011;8838;50.144;8.176;2024-01-07T09:21:26;25.77;;;15.10;;
17441;SDS011;8838;50.144;8.176;2024-01-07T09:23:53;21.70;;;13.27;;
17441;SDS011;8838;50.144;8.176;2024-01-07T09:26:20;23.97;;;14.40;;
17441;SDS011;8838;50.144;8.176;2024-01-07T09:28:47;20.23;;;12.57;;
17441;SDS011;8838;50.144;8.176;2024-01-07T09:31:14;19.93;;;12.10;;
17441;SDS011;8838;50.144;8.176;2024-01-07T09:33:41;19.93;;;12.77;;
17441;SDS011;8838;50.144;8.176;2024-01-07T09:36:10;20.60;;;13.03;;
17441;SDS011;8838;50.144;8.176;2024-01-07T09:38:37;19.00;;;12.17;;
17441;SDS011;8838;50.144;8.176;2024-01-07T09:41:06;33.87;;;20.07;;
17441;SDS011;8838;50.144;8.176;2024-01-07T09:43:32;23.47;;;13.20;;
17441;SDS011;8838;50.144;8.176;2024-01-07T09:46:01;23.83;;;14.17;;
17441;SDS011;8838;50.144;8.176;2024-01-07T09:48:28;20.33;;;12.90;;
17441;SDS011;8838;50.144;8.176;2024-01-07T09:50:56;23.90;;;12.97;;
17441;SDS011;8838;50.144;8.176;2024-01-07T09:53:30;20.83;;;13.23;;
17441;SDS011;8838;50.144;8.176;2024-01-07T09:56:00;23.67;;;14.53;;
17441;SDS011;8838;50.144;8.176;2024-01-07T09:58:32;23.30;;;14.30;;
17441;SDS011;8838;50.144;8.176;2024-01-07T10:00:59;23.10;;;14.30;;
17441;SDS011;8838;50.144;8.176;2024-01-07T10:03:26;22.73;;;13.83;;
17441;SDS011;8838;50.144;8.176;2024-01-07T10:05:53;22.40;;;13.87;;
17441;SDS011;8838;50.144;8.176;2024-01-07T10:08:19;21.00;;;13.57;;
17441;SDS011;8838;50.144;8.176;2024-01-07T10:10:49;18.90;;;11.83;;
17441;SDS011;8838;50.144;8.176;2024-01-07T10:13:16;15.43;;;10.97;;
17441;SDS011;8838;50.144;8.176;2024-01-07T10:15:43;20.63;;;11.67;;
17441;SDS011;8838;50.144;8.176;2024-01-07T10:18:10;59.50;;;35.33;;
17441;SDS011;8838;50.144;8.176;2024-01-07T10:20:37;17.40;;;11.87;;
17441;SDS011;8838;50.144;8.176;2024-01-07T10:23:04;16.87;;;11.33;;
17441;SDS011;8838;50.144;8.176;2024-01-07T10:25:33;16.30;;;11.00;;
17441;SDS011;8838;50.144;8.176;2024-01-07T10:28:02;15.27;;;10.67;;
17441;SDS011;8838;50.144;8.176;2024-01-07T10:30:29;18.10;;;11.43;;
17441;SDS011;8838;50.144;8.176;2024-01-07T10:32:57;16.13;;;11.10;;
17441;SDS011;8838;50.144;8.176;2024-01-07T10:35:27;18.17;;;11.67;;
17441;SDS011;8838;50.144;8.176;2024-01-07T10:37:57;19.93;;;12.50;;
17441;SDS011;8838;50.144;8.176;2024-01-07T10:40:24;21.87;;;13.00;;
17441;SDS011;8838;50.144;8.176;2024-01-07T10:42:54;21.27;;;12.67;;
17441;SDS011;8838;50.144;8.176;2024-01-07T10:45:23;14.73;;;10.50;;
17441;SDS011;8838;50.144;8.176;2024-01-07T10:47:50;15.60;;;10.57;;
17441;SDS011;8838;50.144;8.176;2024-01-07T10:50:21;20.63;;;12.83;;
17441;SDS011;8838;50.144;8.176;2024-01-07T10:52:48;17.30;;;11.57;;
17441;SDS011;8838;50.144;8.176;2024-01-07T10:55:17;15.27;;;10.60;;
17441;SDS011;8838;50.144;8.176;2024-01-07T10:57:46;14.50;;;10.63;;
17441;SDS011;8838;50.144;8.176;2024-01-07T11:00:15;17.97;;;11.87;;
17441;SDS011;8838;50.144;8.176;2024-01-07T11:02:53;16.13;;;11.60;;
17441;SDS011;8838;50.144;8.176;2024-01-07T11:05:28;18.17;;;12.13;;
17441;SDS011;8838;50.144;8.176;2024-01-07T11:08:01;17.73;;;12.07;;
17441;SDS011;8838;50.144;8.176;2024-01-07T11:10:38;15.67;;;11.57;;
17441;SDS011;8838;50.144;8.176;2024-01-07T11:13:09;15.63;;;11.23;;
17441;SDS011;8838;50.144;8.176;2024-01-07T11:15:51;15.87;;;10.63;;
17441;SDS011;8838;50.144;8.176;2024-01-07T11:18:21;14.77;;;10.70;;
17441;SDS011;8838;50.144;8.176;2024-01-07T11:20:49;14.07;;;10.47;;
17441;SDS011;8838;50.144;8.176;2024-01-07T11:23:29;15.37;;;10.63;;
17441;SDS011;8838;50.144;8.176;2024-01-07T11:25:58;15.67;;;11.40;;
17441;SDS011;8838;50.144;8.176;2024-01-07T11:28:44;15.70;;;10.77;;
17441;SDS011;8838;50.144;8.176;2024-01-07T11:31:12;17.93;;;11.33;;
17441;SDS011;8838;50.144;8.176;2024-01-07T11:33:42;19.03;;;12.27;;
17441;SDS011;8838;50.144;8.176;2024-01-07T11:36:10;14.37;;;10.30;;
17441;SDS011;8838;50.144;8.176;2024-01-07T11:38:41;15.20;;;10.33;;
17441;SDS011;8838;50.144;8.176;2024-01-07T11:41:09;16.03;;;11.13;;
17441;SDS011;8838;50.144;8.176;2024-01-07T11:43:38;14.17;;;9.90;;
17441;SDS011;8838;50.144;8.176;2024-01-07T11:46:19;14.07;;;10.13;;
17441;SDS011;8838;50.144;8.176;2024-01-07T11:48:47;14.40;;;10.10;;
17441;SDS011;8838;50.144;8.176;2024-01-07T11:51:14;12.13;;;8.80;;
17441;SDS011;8838;50.144;8.176;2024-01-07T11:53:42;13.20;;;9.40;;
17441;SDS011;8838;50.144;8.176;2024-01-07T11:56:13;11.40;;;8.97;;
17441;SDS011;8838;50.144;8.176;2024-01-07T11:58:40;12.27;;;9.07;;
17441;SDS011;8838;50.144;8.176;2024-01-07T12:01:07;14.30;;;9.70;;
17441;SDS011;8838;50.144;8.176;2024-01-07T12:03:34;15.47;;;9.60;;
17441;SDS011;8838;50.144;8.176;2024-01-07T12:06:02;13.40;;;8.87;;
17441;SDS011;8838;50.144;8.176;2024-01-07T12:08:29;12.53;;;8.87;;
17441;SDS011;8838;50.144;8.176;2024-01-07T12:10:57;13.57;;;9.33;;
17441;SDS011;8838;50.144;8.176;2024-01-07T12:13:25;13.90;;;9.53;;
17441;SDS011;8838;50.144;8.176;2024-01-07T12:15:53;17.63;;;12.50;;
17441;SDS011;8838;50.144;8.176;2024-01-07T12:18:20;15.40;;;10.27;;
17441;SDS011;8838;50.144;8.176;2024-01-07T12:20:54;17.33;;;10.60;;
17441;SDS011;8838;50.144;8.176;2024-01-07T12:23:24;24.07;;;13.70;;
17441;SDS011;8838;50.144;8.176;2024-01-07T12:25:51;18.43;;;12.47;;
17441;SDS011;8838;50.144;8.176;2024-01-07T12:28:19;17.00;;;10.77;;
17441;SDS011;8838;50.144;8.176;2024-01-07T12:30:47;18.33;;;11.00;;
17441;SDS011;8838;50.144;8.176;2024-01-07T12:33:15;17.00;;;10.33;;
17441;SDS011;8838;50.144;8.176;2024-01-07T12:35:44;15.97;;;10.40;;
17441;SDS011;8838;50.144;8.176;2024-01-07T12:38:12;14.63;;;10.30;;
17441;SDS011;8838;50.144;8.176;2024-01-07T12:40:41;15.77;;;10.43;;
17441;SDS011;8838;50.144;8.176;2024-01-07T12:43:08;15.80;;;10.50;;
17441;SDS011;8838;50.144;8.176;2024-01-07T12:45:35;15.30;;;10.40;;
17441;SDS011;8838;50.144;8.176;2024-01-07T12:48:02;17.23;;;11.43;;
17441;SDS011;8838;50.144;8.176;2024-01-07T12:50:30;19.00;;;10.87;;
17441;SDS011;8838;50.144;8.176;2024-01-07T12:52:58;14.43;;;10.17;;
17441;SDS011;8838;50.144;8.176;2024-01-07T12:55:25;16.37;;;11.10;;
17441;SDS011;8838;50.144;8.176;2024-01-07T12:57:54;16.17;;;10.53;;
17441;SDS011;8838;50.144;8.176;2024-01-07T13:00:23;16.43;;;10.60;;
17441;SDS011;8838;50.144;8.176;2024-01-07T13:02:50;15.53;;;10.50;;
17441;SDS011;8838;50.144;8.176;2024-01-07T13:05:17;15.77;;;10.50;;
17441;SDS011;8838;50.144;8.176;2024-01-07T13:07:44;16.00;;;10.77;;
17441;SDS011;8838;50.144;8.176;2024-01-07T13:10:12;15.77;;;9.80;;
17441;SDS011;8838;50.144;8.176;2024-01-07T13:12:39;16.87;;;10.23;;
17441;SDS011;8838;50.144;8.176;2024-01-07T13:15:08;16.50;;;10.23;;
17441;SDS011;8838;50.144;8.176;2024-01-07T13:17:37;20.13;;;11.50;;
17441;SDS011;8838;50.144;8.176;2024-01-07T13:20:05;16.27;;;9.77;;
17441;SDS011;8838;50.144;8.176;2024-01-07T13:22:36;15.80;;;9.93;;
17441;SDS011;8838;50.144;8.176;2024-01-07T13:25:03;15.63;;;9.07;;
17441;SDS011;8838;50.144;8.176;2024-01-07T13:27:33;15.90;;;8.77;;
17441;SDS011;8838;50.144;8.176;2024-01-07T13:30:00;15.53;;;9.43;;
17441;SDS011;8838;50.144;8.176;2024-01-07T13:32:30;15.60;;;8.73;;
17441;SDS011;8838;50.144;8.176;2024-01-07T13:35:01;16.00;;;9.10;;
17441;SDS011;8838;50.144;8.176;2024-01-07T13:37:28;14.67;;;8.33;;
17441;SDS011;8838;50.144;8.176;2024-01-07T13:39:55;14.27;;;8.57;;
17441;SDS011;8838;50.144;8.176;2024-01-07T13:42:22;15.57;;;9.17;;
17441;SDS011;8838;50.144;8.176;2024-01-07T13:44:49;11.47;;;7.30;;
17441;SDS011;8838;50.144;8.176;2024-01-07T13:47:16;12.47;;;7.90;;
17441;SDS011;8838;50.144;8.176;2024-01-07T13:49:45;12.77;;;7.47;;
17441;SDS011;8838;50.144;8.176;2024-01-07T13:52:11;14.87;;;8.70;;
17441;SDS011;8838;50.144;8.176;2024-01-07T13:54:39;12.07;;;7.97;;
17441;SDS011;8838;50.144;8.176;2024-01-07T13:57:05;12.37;;;7.53;;
17441;SDS011;8838;50.144;8.176;2024-01-07T13:59:32;27.63;;;23.73;;
17441;SDS011;8838;50.144;8.176;2024-01-07T14:01:59;11.43;;;7.67;;
17441;SDS011;8838;50.144;8.176;2024-01-07T14:04:27;11.33;;;7.13;;
17441;SDS011;8838;50.144;8.176;2024-01-07T14:06:56;12.67;;;7.70;;
17441;SDS011;8838;50.144;8.176;2024-01-07T14:09:23;11.67;;;7.60;;
17441;SDS011;8838;50.144;8.176;2024-01-07T14:11:50;12.90;;;7.73;;
17441;SDS011;8838;50.144;8.176;2024-01-07T14:14:18;10.43;;;7.13;;
17441;SDS011;8838;50.144;8.176;2024-01-07T14:16:45;12.27;;;7.13;;
17441;SDS011;8838;50.144;8.176;2024-01-07T14:19:12;12.47;;;7.40;;
17441;SDS011;8838;50.144;8.176;2024-01-07T14:21:41;13.80;;;7.70;;
17441;SDS011;8838;50.144;8.176;2024-01-07T14:24:09;11.80;;;6.97;;
17441;SDS011;8838;50.144;8.176;2024-01-07T14:26:36;11.67;;;6.80;;
17441;SDS011;8838;50.144;8.176;2024-01-07T14:29:03;10.00;;;6.33;;
17441;SDS011;8838;50.144;8.176;2024-01-07T14:31:30;9.67;;;6.37;;
17441;SDS011;8838;50.144;8.176;2024-01-07T14:33:57;9.97;;;6.13;;
17441;SDS011;8838;50.144;8.176;2024-01-07T14:36:24;10.53;;;6.40;;
17441;SDS011;8838;50.144;8.176;2024-01-07T14:38:52;10.23;;;6.43;;
17441;SDS011;8838;50.144;8.176;2024-01-07T14:41:20;9.10;;;6.17;;